Doverlandia, Brazil
Current Conditions -  °F | °C
As of 12:00 AM on Monday 22 Dec 2014 (Local Time) from SBGO Reporting Station
Few Clouds Few Clouds  
Wind Chill: 73°   Ceiling: Unl
Heat Index: 73°   Visibility: 6mi
Dew Point: 66°   Wind: 8mph
Humidity: 78%   Direction: 320°NW
Pressure: 30.06"   Gusts: NA
Location:  16.72°S, 52.32°W
Report Text: SBGO 220200Z 32007KT 9999 FEW020 23/19 Q1018
Loading
Personal Weather Stations






























Interactive Weather Map New forecast layout! Learn more

10-Day Weather Forecast

Advertisements
Track Severe Weather on mobile